Time;durP1;ratioP1;P1;durP2;ratioP2;P2;SDS_P1;SDS_P2;PMS_P1;PMS_P2;Temp;Humidity;BMP_temperature;BMP_pressure;BME280_temperature;BME280_humidity;BME280_pressure;Samples;Min_cycle;Max_cycle;Signal;HPM_P1;HPM_P2
2021/11/16 00:00:16;;;;;;;71.90;30.02;;;;;;;5.18;86.09;96630.09;5069850;28;20411;-70
2021/11/16 00:02:44;;;;;;;79.10;30.38;;;;;;;5.18;85.80;96627.41;5069293;28;20458;-70
2021/11/16 00:05:11;;;;;;;76.40;30.52;;;;;;;5.14;86.04;96626.34;5069870;28;20415;-70
2021/11/16 00:07:38;;;;;;;75.72;29.17;;;;;;;5.15;86.28;96625.25;5069242;28;20044;-69
2021/11/16 00:10:05;;;;;;;80.78;30.75;;;;;;;5.14;85.97;96631.72;5069883;28;20044;-70
2021/11/16 00:12:32;;;;;;;77.15;31.15;;;;;;;5.12;86.09;96636.63;5069413;28;20044;-70
2021/11/16 00:14:59;;;;;;;90.70;31.38;;;;;;;5.16;86.26;96637.66;5073762;28;20502;-70
2021/11/16 00:17:25;;;;;;;81.65;31.10;;;;;;;5.18;86.28;96640.91;5089495;28;20044;-70
2021/11/16 00:19:53;;;;;;;78.93;31.05;;;;;;;5.18;85.96;96630.91;5089456;28;20058;-70
2021/11/16 00:22:20;;;;;;;73.63;30.35;;;;;;;5.20;85.96;96638.72;5089835;28;20135;-69
2021/11/16 00:25:07;;;;;;;79.22;29.67;;;;;;;5.21;86.11;96624.13;5089257;28;20048;-69
2021/11/16 00:27:35;;;;;;;78.57;29.48;;;;;;;5.22;86.09;96636.56;5110416;27;20059;-70
2021/11/16 00:30:01;;;;;;;76.75;29.83;;;;;;;5.21;86.21;96630.34;5109537;28;20573;-70
2021/11/16 00:32:29;;;;;;;76.88;30.10;;;;;;;5.22;86.30;96626.56;5089563;28;20040;-69
2021/11/16 00:34:57;;;;;;;81.07;31.30;;;;;;;5.21;86.21;96627.63;5089356;28;20052;-70
2021/11/16 00:37:26;;;;;;;77.00;30.45;;;;;;;5.23;86.13;96628.19;5089188;28;20050;-69
2021/11/16 00:39:53;;;;;;;75.88;30.00;;;;;;;5.28;85.70;96624.66;5090017;28;20070;-70
2021/11/16 00:42:20;;;;;;;77.10;30.05;;;;;;;5.25;85.48;96622.50;5088176;28;20463;-70
2021/11/16 00:44:47;;;;;;;67.47;28.80;;;;;;;5.25;85.52;96625.19;5084572;28;20055;-69
2021/11/16 00:47:13;;;;;;;72.43;29.40;;;;;;;5.22;85.81;96623.06;5068201;28;20059;-70
2021/11/16 00:49:40;;;;;;;68.35;27.73;;;;;;;5.20;85.83;96627.91;5069496;28;20051;-69
2021/11/16 00:52:08;;;;;;;72.97;30.33;;;;;;;5.21;85.99;96632.22;5067763;28;20055;-69
2021/11/16 00:54:35;;;;;;;74.57;29.00;;;;;;;5.22;85.77;96636.56;5069442;28;20598;-69
2021/11/16 00:57:01;;;;;;;67.43;28.98;;;;;;;5.20;86.03;96636.03;5068742;28;20052;-70
2021/11/16 00:59:28;;;;;;;79.32;30.25;;;;;;;5.18;85.92;96635.50;5068509;28;20069;-69
2021/11/16 01:01:54;;;;;;;69.22;29.02;;;;;;;5.19;86.00;96627.13;5068833;28;20048;-70
2021/11/16 01:04:21;;;;;;;74.70;28.25;;;;;;;5.17;85.75;96628.50;5068116;28;20074;-69
2021/11/16 01:06:49;;;;;;;79.50;30.15;;;;;;;5.14;85.81;96629.03;5069285;28;20406;-69
2021/11/16 01:09:17;;;;;;;65.63;28.38;;;;;;;5.13;85.69;96630.94;5068205;28;20048;-70
2021/11/16 01:11:44;;;;;;;75.43;28.67;;;;;;;5.18;86.04;96630.09;5069029;28;20511;-69
2021/11/16 01:14:11;;;;;;;77.70;30.92;;;;;;;5.21;86.12;96626.84;5067603;28;20055;-69
2021/11/16 01:16:38;;;;;;;86.82;31.42;;;;;;;5.29;86.04;96626.28;5089166;28;20048;-69
2021/11/16 01:19:06;;;;;;;72.10;29.85;;;;;;;5.30;85.75;96627.06;5087975;28;20051;-70
2021/11/16 01:21:33;;;;;;;72.72;28.98;;;;;;;5.25;85.72;96625.19;5088800;28;20048;-70
2021/11/16 01:24:00;;;;;;;70.32;27.88;;;;;;;5.21;85.81;96624.13;5089085;28;20604;-70
2021/11/16 01:26:28;;;;;;;66.45;27.48;;;;;;;5.23;85.88;96632.78;5107984;27;20040;-70
2021/11/16 01:28:55;;;;;;;70.32;27.13;;;;;;;5.24;85.70;96639.78;5109403;28;20055;-70
2021/11/16 01:31:22;;;;;;;71.43;28.00;;;;;;;5.23;85.77;96648.97;5107768;28;20063;-69
2021/11/16 01:33:54;;;;;;;61.92;26.52;;;;;;;5.26;85.88;96642.22;5109218;27;20185;-70
2021/11/16 01:36:20;;;;;;;70.75;26.52;;;;;;;5.23;85.63;96638.19;5108005;28;20502;-70
2021/11/16 01:38:48;;;;;;;71.03;27.75;;;;;;;5.25;85.90;96636.00;5109248;28;20650;-70
2021/11/16 01:41:15;;;;;;;70.60;27.95;;;;;;;5.28;85.37;96630.06;5107809;28;20043;-70
2021/11/16 01:43:43;;;;;;;65.15;27.10;;;;;;;5.33;85.14;96615.72;5109013;28;20052;-69
2021/11/16 01:46:13;;;;;;;65.72;26.92;;;;;;;5.30;85.05;96613.56;5107547;28;20050;-69
2021/11/16 01:48:40;;;;;;;66.28;27.27;;;;;;;5.31;85.35;96618.69;5108246;28;20626;-69
2021/11/16 01:51:07;;;;;;;65.43;27.50;;;;;;;5.30;85.66;96611.69;5108258;28;20426;-69
2021/11/16 01:53:34;;;;;;;70.40;27.17;;;;;;;5.34;84.94;96615.44;5107941;28;20039;-70
2021/11/16 01:56:02;;;;;;;61.17;25.95;;;;;;;5.33;85.16;96624.63;5109145;27;20050;-70
2021/11/16 01:58:28;;;;;;;63.92;27.05;;;;;;;5.29;85.38;96631.66;5107542;28;20063;-70
2021/11/16 02:00:56;;;;;;;63.65;26.38;;;;;;;5.30;85.09;96613.56;5108643;28;20043;-70
2021/11/16 02:03:25;;;;;;;65.85;26.10;;;;;;;5.24;85.33;96612.78;5107158;28;20043;-70
2021/11/16 02:05:55;;;;;;;66.93;26.77;;;;;;;5.24;85.47;96615.50;5108237;28;20047;-70
2021/11/16 02:08:23;;;;;;;63.15;26.48;;;;;;;5.23;85.45;96627.38;5107575;28;20355;-70
2021/11/16 02:10:53;;;;;;;68.72;28.50;;;;;;;5.21;85.34;96618.72;5107987;27;20050;-70
2021/11/16 02:13:20;;;;;;;67.05;27.60;;;;;;;5.22;85.61;96620.38;5108323;28;20581;-70
2021/11/16 02:15:47;;;;;;;70.55;27.10;;;;;;;5.26;85.15;96605.22;5093491;28;20047;-70
2021/11/16 02:18:15;;;;;;;70.40;27.13;;;;;;;5.22;85.12;96598.78;5087744;28;20736;-70
2021/11/16 02:20:44;;;;;;;69.78;28.13;;;;;;;5.16;85.48;96605.25;5086984;28;20083;-70
2021/11/16 02:23:11;;;;;;;69.15;26.77;;;;;;;5.13;85.52;96611.22;5087815;28;20048;-69
2021/11/16 02:25:38;;;;;;;66.35;25.95;;;;;;;5.17;85.50;96601.50;5087356;28;20044;-70
2021/11/16 02:28:06;;;;;;;69.78;26.25;;;;;;;5.16;85.72;96602.56;5087357;28;20503;-69
2021/11/16 02:30:32;;;;;;;68.10;27.35;;;;;;;5.15;85.94;96599.06;5087658;28;20051;-69
2021/11/16 02:33:00;;;;;;;75.68;29.10;;;;;;;5.15;85.74;96588.25;5087207;28;20052;-70
2021/11/16 02:35:27;;;;;;;66.03;26.17;;;;;;;5.17;85.82;96588.81;5067312;28;20071;-70
2021/11/16 02:37:58;;;;;;;70.55;28.15;;;;;;;5.14;85.75;96602.03;5066050;28;20059;-69
2021/11/16 02:40:26;;;;;;;66.28;26.27;;;;;;;5.12;86.00;96604.22;5066796;28;20048;-70
2021/11/16 02:42:53;;;;;;;63.60;26.27;;;;;;;5.13;85.80;96603.94;5066809;28;20131;-69
2021/11/16 02:45:21;;;;;;;66.93;27.70;;;;;;;5.10;85.69;96598.28;5076273;28;20048;-70
2021/11/16 02:47:48;;;;;;;63.47;26.00;;;;;;;5.08;85.88;96597.75;5087177;28;20048;-70
2021/11/16 02:50:16;;;;;;;56.95;25.08;;;;;;;5.02;85.76;96628.56;5087157;28;20048;-70
2021/11/16 02:52:43;;;;;;;66.20;26.48;;;;;;;4.95;86.04;96632.31;5087624;28;20059;-70
2021/11/16 02:55:11;;;;;;;63.10;26.33;;;;;;;4.97;86.26;96597.78;5086780;28;20047;-69
2021/11/16 02:57:38;;;;;;;67.65;27.15;;;;;;;4.97;86.34;96605.88;5087457;28;20059;-70
2021/11/16 03:00:09;;;;;;;62.53;26.13;;;;;;;4.94;86.10;96619.13;5085539;28;20055;-69
2021/11/16 03:02:36;;;;;;;69.97;25.13;;;;;;;4.90;86.38;96608.06;5086850;28;20050;-70
2021/11/16 03:05:03;;;;;;;66.53;26.85;;;;;;;4.89;86.41;96601.03;5086444;28;20048;-70
2021/11/16 03:07:31;;;;;;;66.25;24.52;;;;;;;4.89;86.81;96617.25;5087575;28;20055;-70
2021/11/16 03:09:59;;;;;;;69.80;26.50;;;;;;;4.93;86.85;96629.09;5086797;28;20056;-70
2021/11/16 03:12:28;;;;;;;60.40;25.02;;;;;;;4.97;86.39;96618.56;5086675;28;20631;-70
2021/11/16 03:14:54;;;;;;;63.30;26.20;;;;;;;4.99;86.26;96616.41;5080542;28;20051;-70
2021/11/16 03:17:21;;;;;;;63.83;24.48;;;;;;;4.95;86.42;96615.31;5066484;28;20052;-70
2021/11/16 03:19:48;;;;;;;62.92;26.42;;;;;;;4.90;86.72;96629.63;5067358;28;20053;-70
2021/11/16 03:22:16;;;;;;;67.18;26.63;;;;;;;4.94;87.10;96622.63;5066080;28;20041;-70
2021/11/16 03:24:43;;;;;;;66.00;26.20;;;;;;;4.96;86.62;96609.69;5067510;28;20076;-69
2021/11/16 03:27:13;;;;;;;60.40;25.23;;;;;;;4.98;86.78;96612.91;5066316;28;20553;-70
2021/11/16 03:29:45;;;;;;;54.50;24.92;;;;;;;5.03;86.30;96620.16;5067295;28;20397;-70
2021/11/16 03:32:13;;;;;;;61.60;24.30;;;;;;;5.02;86.37;96607.75;5065887;28;20578;-70
2021/11/16 03:34:43;;;;;;;59.05;24.40;;;;;;;5.03;85.87;96609.38;5067277;28;20127;-69
2021/11/16 03:37:10;;;;;;;66.35;26.58;;;;;;;4.97;86.01;96605.09;5066953;28;20126;-70
2021/11/16 03:39:37;;;;;;;61.78;26.48;;;;;;;4.98;86.54;96599.41;5066570;28;20047;-69
2021/11/16 03:42:04;;;;;;;60.63;25.17;;;;;;;4.91;86.46;96615.09;5066294;28;20056;-70
2021/11/16 03:44:32;;;;;;;64.97;26.02;;;;;;;4.89;86.62;96616.44;5064343;28;20048;-70
2021/11/16 03:47:00;;;;;;;72.47;25.77;;;;;;;4.87;86.89;96619.41;5067176;28;20059;-70
2021/11/16 03:49:27;;;;;;;69.55;27.23;;;;;;;4.84;86.95;96630.75;5068660;28;20051;-70
2021/11/16 03:51:54;;;;;;;61.97;25.20;;;;;;;4.80;87.42;96624.28;5070449;28;20094;-69
2021/11/16 03:54:21;;;;;;;75.95;26.88;;;;;;;4.79;87.43;96622.66;5069501;28;20061;-70
2021/11/16 03:56:48;;;;;;;74.20;25.92;;;;;;;4.80;87.52;96626.16;5070403;28;20059;-70
2021/11/16 03:59:14;;;;;;;78.72;26.55;;;;;;;4.78;87.54;96620.25;5068983;28;20063;-70
2021/11/16 04:01:41;;;;;;;74.75;27.10;;;;;;;4.78;87.77;96615.66;5070448;28;20044;-70
2021/11/16 04:04:11;;;;;;;70.95;26.13;;;;;;;4.75;87.46;96621.63;5070030;28;20537;-70
2021/11/16 04:06:37;;;;;;;74.57;26.88;;;;;;;4.80;87.44;96624.28;5069594;28;20053;-70
2021/11/16 04:09:05;;;;;;;74.70;28.20;;;;;;;4.82;87.42;96624.81;5070349;28;20071;-70
2021/11/16 04:11:31;;;;;;;70.03;26.23;;;;;;;4.86;87.55;96617.81;5069487;28;20040;-70
2021/11/16 04:13:58;;;;;;;71.25;26.58;;;;;;;4.83;87.27;96628.34;5069952;28;20095;-69
2021/11/16 04:16:24;;;;;;;73.07;26.63;;;;;;;4.80;87.80;96618.06;5068780;28;20105;-70
2021/11/16 04:18:52;;;;;;;77.97;27.98;;;;;;;4.85;87.63;96616.16;5070166;28;20045;-70
2021/11/16 04:21:20;;;;;;;73.60;27.55;;;;;;;4.88;87.71;96621.03;5069136;28;20079;-69
2021/11/16 04:23:47;;;;;;;70.43;26.70;;;;;;;4.92;87.36;96627.50;5069823;28;20048;-70
2021/11/16 04:26:13;;;;;;;74.55;28.30;;;;;;;4.87;87.69;96627.50;5069516;28;20063;-70
2021/11/16 04:28:40;;;;;;;84.65;28.27;;;;;;;4.87;87.66;96627.50;5069028;28;20041;-70
2021/11/16 04:31:06;;;;;;;78.55;27.83;;;;;;;4.87;87.79;96629.41;5069293;28;20512;-70
2021/11/16 04:33:33;;;;;;;80.60;28.40;;;;;;;4.91;87.95;96625.88;5068895;28;20055;-70
2021/11/16 04:36:00;;;;;;;78.90;29.23;;;;;;;4.91;87.82;96628.59;5069965;28;20049;-70
2021/11/16 04:38:28;;;;;;;82.25;27.90;;;;;;;4.87;87.86;96635.59;5068745;28;20068;-70
2021/11/16 04:40:58;;;;;;;75.18;27.63;;;;;;;4.92;87.89;96638.28;5069360;28;20521;-70
2021/11/16 04:43:27;;;;;;;68.25;27.17;;;;;;;4.96;87.79;96641.25;5076715;28;20441;-69
2021/11/16 04:45:56;;;;;;;74.45;26.30;;;;;;;4.96;87.84;96633.97;5089323;28;20649;-70
2021/11/16 04:48:33;;;;;;;74.28;27.27;;;;;;;5.03;87.51;96632.84;5089112;28;20044;-70
2021/11/16 04:54:07;;;;;;;82.28;28.02;;;;;;;4.94;87.52;96625.31;5098719;28;20043;-70
2021/11/16 04:59:35;;;;;;;84.25;27.30;;;;;;;4.98;87.53;96629.09;5108542;28;20070;-70
2021/11/16 05:04:45;;;;;;;82.97;28.40;;;;;;;4.99;87.31;96624.50;5108965;27;20046;-70
2021/11/16 05:07:16;;;;;;;77.85;28.17;;;;;;;5.01;87.83;96635.00;5109462;28;20043;-70
2021/11/16 05:09:49;;;;;;;75.80;27.15;;;;;;;5.06;87.27;96626.88;5109046;28;20039;-70
2021/11/16 05:12:16;;;;;;;73.55;27.73;;;;;;;5.07;87.31;96640.13;5108949;28;20047;-70
2021/11/16 05:14:43;;;;;;;72.70;27.75;;;;;;;5.03;86.97;96638.25;5088547;28;20522;-70
2021/11/16 05:17:09;;;;;;;72.65;28.27;;;;;;;5.07;87.41;96636.63;5087892;28;20055;-69
2021/11/16 05:19:36;;;;;;;74.85;26.88;;;;;;;5.07;87.53;96623.13;5088861;28;20044;-70
2021/11/16 05:22:03;;;;;;;76.55;27.70;;;;;;;5.08;87.51;96630.94;5087861;28;20075;-70
2021/11/16 05:24:30;;;;;;;73.95;27.13;;;;;;;5.12;87.85;96631.22;5088835;28;20052;-70
2021/11/16 05:26:59;;;;;;;65.88;26.33;;;;;;;5.13;87.73;96649.03;5088251;28;20074;-70
2021/11/16 05:29:26;;;;;;;76.07;28.52;;;;;;;5.12;87.88;96655.50;5088751;28;20055;-70
2021/11/16 05:31:53;;;;;;;71.88;26.92;;;;;;;5.13;87.84;96651.72;5087864;28;20651;-70
2021/11/16 05:34:19;;;;;;;68.78;26.75;;;;;;;5.16;87.51;96653.84;5088251;28;20051;-70
2021/11/16 05:36:46;;;;;;;70.25;26.65;;;;;;;5.16;86.75;96649.25;5088288;28;20057;-70
2021/11/16 05:39:12;;;;;;;63.30;25.90;;;;;;;5.16;87.29;96651.94;5088031;28;20109;-70
2021/11/16 05:41:39;;;;;;;57.83;25.83;;;;;;;5.17;87.29;96645.50;5087770;28;20048;-70
2021/11/16 05:44:09;;;;;;;66.90;26.17;;;;;;;5.16;87.20;96651.94;5101364;27;20043;-69
2021/11/16 05:46:35;;;;;;;69.60;27.00;;;;;;;5.18;87.27;96654.41;5108970;28;20410;-70
2021/11/16 05:49:02;;;;;;;64.10;26.38;;;;;;;5.23;87.19;96651.69;5107577;27;20040;-70
2021/11/16 05:51:29;;;;;;;67.65;25.58;;;;;;;5.24;86.82;96642.50;5108562;28;20047;-70
2021/11/16 05:53:58;;;;;;;70.63;26.08;;;;;;;5.22;86.96;96658.97;5107926;28;20427;-71
2021/11/16 05:56:26;;;;;;;67.82;26.25;;;;;;;5.25;86.62;96654.91;5108373;28;20149;-70
2021/11/16 05:58:54;;;;;;;66.00;26.48;;;;;;;5.22;86.60;96641.97;5107610;28;20060;-71
2021/11/16 06:01:23;;;;;;;59.90;25.63;;;;;;;5.18;86.57;96639.00;5107878;28;20043;-71
2021/11/16 06:03:51;;;;;;;61.30;25.50;;;;;;;5.18;86.93;96640.91;5107952;28;20041;-70
2021/11/16 06:06:20;;;;;;;71.03;26.50;;;;;;;5.17;87.08;96644.69;5107649;28;20047;-70
2021/11/16 06:08:48;;;;;;;60.78;24.90;;;;;;;5.17;87.31;96642.78;5108335;28;20511;-70
2021/11/16 06:11:16;;;;;;;62.92;26.02;;;;;;;5.21;87.57;96645.72;5106903;27;20055;-71
2021/11/16 06:13:42;;;;;;;63.92;25.98;;;;;;;5.23;87.49;96643.59;5096858;28;20040;-71
2021/11/16 06:16:09;;;;;;;58.40;25.90;;;;;;;5.18;87.12;96643.59;5087152;28;20047;-71
2021/11/16 06:18:37;;;;;;;59.47;25.63;;;;;;;5.15;87.23;96650.34;5088206;28;20044;-70
2021/11/16 06:21:03;;;;;;;65.03;25.58;;;;;;;5.21;87.39;96641.13;5086747;28;20055;-71
2021/11/16 06:23:30;;;;;;;59.30;23.65;;;;;;;5.17;87.36;96655.50;5087619;28;20657;-71
2021/11/16 06:25:57;;;;;;;56.38;24.30;;;;;;;5.19;87.77;96646.00;5087450;28;20043;-71
2021/11/16 06:28:23;;;;;;;60.78;24.67;;;;;;;5.21;87.60;96643.84;5086829;28;20047;-71
2021/11/16 06:30:50;;;;;;;58.78;23.95;;;;;;;5.19;87.67;96642.50;5087862;28;20048;-70
2021/11/16 06:33:20;;;;;;;68.03;25.50;;;;;;;5.16;87.54;96648.44;5086468;28;20051;-71
2021/11/16 06:35:48;;;;;;;63.42;24.92;;;;;;;5.15;87.63;96641.44;5088020;28;20514;-71
2021/11/16 06:38:15;;;;;;;69.90;25.42;;;;;;;5.16;87.81;96653.84;5086601;28;20495;-70
2021/11/16 06:40:47;;;;;;;69.53;27.80;;;;;;;5.18;88.33;96646.31;5087374;28;20051;-73
2021/11/16 06:43:20;;;;;;;72.10;27.45;;;;;;;5.20;88.24;96658.44;5086100;28;20132;-72
2021/11/16 06:45:50;;;;;;;69.13;26.23;;;;;;;5.24;88.51;96647.88;5087280;28;20133;-72
2021/11/16 06:48:17;;;;;;;73.70;27.17;;;;;;;5.26;88.50;96645.72;5086770;28;20075;-72
2021/11/16 06:50:43;;;;;;;74.90;26.95;;;;;;;5.32;88.71;96655.41;5087190;28;20052;-73
2021/11/16 06:53:11;;;;;;;70.72;26.40;;;;;;;5.35;88.86;96657.56;5086942;28;20055;-73
2021/11/16 06:55:38;;;;;;;62.72;24.98;;;;;;;5.39;87.62;96669.44;5086643;28;20648;-73
2021/11/16 06:58:05;;;;;;;55.70;23.25;;;;;;;5.36;87.24;96656.47;5086935;28;20051;-72
2021/11/16 07:00:33;;;;;;;54.00;23.63;;;;;;;5.35;86.84;96657.56;5086517;28;20040;-73
2021/11/16 07:03:03;;;;;;;54.70;22.98;;;;;;;5.36;87.22;96667.28;5087388;28;20048;-73
2021/11/16 07:05:30;;;;;;;58.53;23.70;;;;;;;5.33;87.59;96654.34;5086843;28;20048;-73
2021/11/16 07:07:57;;;;;;;58.30;22.98;;;;;;;5.33;87.45;96654.34;5087331;28;20051;-73
2021/11/16 07:10:31;;;;;;;58.88;23.33;;;;;;;5.32;87.84;96666.19;5085869;28;20126;-73
2021/11/16 07:13:05;;;;;;;59.17;22.85;;;;;;;5.42;88.04;96668.84;5090855;28;20054;-73
2021/11/16 07:15:34;;;;;;;55.28;23.67;;;;;;;5.41;87.85;96664.53;5087133;28;20048;-73
2021/11/16 07:18:04;;;;;;;60.97;23.27;;;;;;;5.45;87.50;96673.72;5086675;28;20136;-73
2021/11/16 07:20:31;;;;;;;55.05;22.27;;;;;;;5.44;87.29;96677.50;5087390;28;20044;-73
2021/11/16 07:22:58;;;;;;;49.28;22.02;;;;;;;5.43;87.20;96670.50;5087138;28;20098;-73
2021/11/16 07:25:29;;;;;;;51.15;21.67;;;;;;;5.37;86.87;96671.59;5090620;28;20059;-74
2021/11/16 07:27:56;;;;;;;50.35;21.65;;;;;;;5.36;86.99;96679.97;5090399;28;20139;-73
2021/11/16 07:30:28;;;;;;;53.22;21.83;;;;;;;5.39;87.65;96669.44;5090141;28;20047;-73
2021/11/16 07:32:57;;;;;;;61.53;22.52;;;;;;;5.42;87.47;96674.25;5090357;28;20051;-73
2021/11/16 07:35:26;;;;;;;53.80;21.00;;;;;;;5.42;87.49;96678.84;5089875;28;20047;-73
2021/11/16 07:37:56;;;;;;;47.72;21.27;;;;;;;5.42;87.31;96682.38;5091103;28;20052;-73
2021/11/16 07:40:23;;;;;;;52.25;22.15;;;;;;;5.42;87.66;96685.06;5089633;28;20040;-73
2021/11/16 07:42:55;;;;;;;54.03;21.77;;;;;;;5.41;87.58;96696.97;5089928;28;20050;-73
2021/11/16 07:45:23;;;;;;;55.60;22.95;;;;;;;5.44;88.12;96693.72;5089841;28;20044;-73
2021/11/16 07:47:53;;;;;;;56.65;22.33;;;;;;;5.48;88.04;96699.34;5090820;28;20043;-73
2021/11/16 07:50:38;;;;;;;58.80;22.98;;;;;;;5.57;88.35;96702.28;5089922;28;20143;-73
2021/11/16 07:53:14;;;;;;;59.10;21.80;;;;;;;5.60;88.25;96699.06;5089310;28;20052;-74
2021/11/16 07:55:42;;;;;;;51.45;20.88;;;;;;;5.63;87.77;96695.78;5090750;28;20083;-73
2021/11/16 07:58:12;;;;;;;51.53;21.05;;;;;;;5.61;87.66;96689.84;5089855;28;20048;-73
2021/11/16 08:00:44;;;;;;;52.60;21.23;;;;;;;5.63;87.52;96687.66;5090944;28;20083;-74
2021/11/16 08:03:14;;;;;;;52.40;21.15;;;;;;;5.66;88.17;96682.53;5089055;28;20056;-74
2021/11/16 08:05:45;;;;;;;52.17;20.73;;;;;;;5.71;88.23;96687.91;5091005;28;20048;-73
2021/11/16 08:08:22;;;;;;;50.50;20.88;;;;;;;5.73;87.76;96695.72;5089828;28;20047;-73
2021/11/16 08:10:53;;;;;;;51.90;21.00;;;;;;;5.73;88.01;96698.44;5090278;28;20040;-73
2021/11/16 08:13:27;;;;;;;53.95;20.73;;;;;;;5.76;87.43;96697.88;5081241;28;20053;-74
2021/11/16 08:15:54;;;;;;;49.83;20.50;;;;;;;5.74;87.07;96691.94;5069667;28;20053;-73
2021/11/16 08:18:20;;;;;;;52.28;22.00;;;;;;;5.75;87.14;96698.97;5069995;28;20061;-73
2021/11/16 08:20:47;;;;;;;55.38;19.55;;;;;;;5.78;87.46;96703.81;5069013;28;20407;-73
2021/11/16 08:23:14;;;;;;;51.17;20.33;;;;;;;5.79;87.12;96694.59;5069390;28;20074;-75
2021/11/16 08:25:40;;;;;;;48.83;20.00;;;;;;;5.82;87.31;96694.06;5069435;28;20056;-73
2021/11/16 08:28:09;;;;;;;43.45;19.23;;;;;;;5.85;86.99;96698.94;5069925;28;20693;-73
2021/11/16 08:30:38;;;;;;;50.72;20.05;;;;;;;5.84;86.48;96702.69;5069488;28;20052;-73
2021/11/16 08:33:05;;;;;;;54.17;20.13;;;;;;;5.84;86.35;96705.38;5068683;28;20041;-73
2021/11/16 08:35:33;;;;;;;46.60;18.77;;;;;;;5.83;86.22;96702.97;5068871;28;20056;-73
2021/11/16 08:38:03;;;;;;;54.17;20.58;;;;;;;5.83;86.59;96706.47;5069147;28;20253;-73
2021/11/16 08:40:33;;;;;;;47.05;19.08;;;;;;;5.84;86.62;96702.69;5069711;28;20070;-73
2021/11/16 08:43:06;;;;;;;52.22;21.17;;;;;;;5.83;86.57;96705.69;5068287;28;20049;-73
2021/11/16 08:45:37;;;;;;;50.83;19.08;;;;;;;5.82;86.55;96704.06;5069837;28;20739;-73
2021/11/16 08:48:09;;;;;;;48.45;20.23;;;;;;;5.74;86.81;96708.16;5068847;28;20056;-72
2021/11/16 08:50:38;;;;;;;56.50;21.23;;;;;;;5.69;86.69;96710.88;5069190;28;20050;-73
2021/11/16 08:53:07;;;;;;;51.88;19.48;;;;;;;5.76;86.71;96706.00;5068823;28;20535;-73
2021/11/16 08:55:34;;;;;;;50.13;18.90;;;;;;;5.75;86.89;96709.78;5068580;28;20049;-73
2021/11/16 08:58:04;;;;;;;50.03;19.42;;;;;;;5.72;86.59;96704.94;5069915;28;20055;-73
2021/11/16 09:00:35;;;;;;;57.90;20.17;;;;;;;5.76;86.80;96703.28;5068144;28;20044;-73
2021/11/16 09:03:04;;;;;;;54.50;19.80;;;;;;;5.79;86.60;96705.41;5069155;28;20048;-72
2021/11/16 09:05:34;;;;;;;50.20;19.55;;;;;;;5.84;86.73;96708.09;5068701;28;20056;-73
2021/11/16 09:08:02;;;;;;;42.60;16.70;;;;;;;5.80;86.43;96706.25;5069013;28;20048;-73
2021/11/16 09:10:33;;;;;;;41.72;16.73;;;;;;;5.72;85.33;96704.94;5068036;28;20048;-73
2021/11/16 09:13:00;;;;;;;38.47;15.82;;;;;;;5.61;85.15;96706.06;5067794;28;20048;-73
2021/11/16 09:15:34;;;;;;;38.53;16.08;;;;;;;5.58;85.92;96703.91;5088786;28;20051;-73
2021/11/16 09:18:09;;;;;;;37.53;15.45;;;;;;;5.57;86.20;96707.69;5088504;28;20574;-73
2021/11/16 09:20:37;;;;;;;36.65;15.38;;;;;;;5.57;85.77;96715.81;5089174;28;20048;-73
2021/11/16 09:23:04;;;;;;;36.60;14.70;;;;;;;5.54;86.48;96697.47;5087395;28;20048;-73
2021/11/16 09:25:35;;;;;;;36.30;15.23;;;;;;;5.49;86.67;96709.91;5089072;28;20519;-73
2021/11/16 09:28:10;;;;;;;30.33;13.57;;;;;;;5.37;86.22;96704.00;5087886;28;20071;-71
2021/11/16 09:30:41;;;;;;;34.85;14.18;;;;;;;5.26;86.69;96702.41;5088231;28;20130;-73
2021/11/16 09:33:11;;;;;;;38.08;14.32;;;;;;;5.24;87.06;96696.50;5087750;28;20052;-73
2021/11/16 09:35:52;;;;;;;32.05;13.70;;;;;;;5.29;86.79;96706.47;5088198;28;20040;-73
2021/11/16 09:38:43;;;;;;;26.25;11.50;;;;;;;5.18;86.03;96694.91;5088480;28;20048;-73
2021/11/16 09:41:12;;;;;;;23.65;10.80;;;;;;;5.13;86.82;96703.00;5087004;28;20044;-73
2021/11/16 09:43:39;;;;;;;27.42;11.50;;;;;;;5.11;87.03;96702.47;5087869;28;20048;-73
2021/11/16 09:46:08;;;;;;;28.67;10.77;;;;;;;5.15;87.55;96706.22;5087565;28;20063;-73
2021/11/16 09:48:36;;;;;;;23.60;10.93;;;;;;;5.20;87.25;96709.72;5088322;28;20058;-73
2021/11/16 09:51:15;;;;;;;24.70;10.82;;;;;;;5.21;87.05;96713.22;5087741;28;20121;-72
2021/11/16 09:53:42;;;;;;;26.05;11.18;;;;;;;5.22;87.45;96717.56;5087301;28;20051;-73
2021/11/16 09:56:19;;;;;;;22.70;10.57;;;;;;;5.24;87.27;96715.38;5088260;28;20044;-73
2021/11/16 09:58:46;;;;;;;22.98;10.60;;;;;;;5.23;87.02;96719.19;5087499;28;20047;-73
2021/11/16 10:01:21;;;;;;;21.65;10.65;;;;;;;5.24;87.23;96710.00;5087360;28;20735;-73
2021/11/16 10:03:51;;;;;;;23.77;10.38;;;;;;;5.26;87.37;96705.09;5087743;28;20048;-73
2021/11/16 10:06:19;;;;;;;27.48;12.02;;;;;;;5.25;86.74;96700.81;5087226;28;20044;-73
2021/11/16 10:08:45;;;;;;;23.98;10.27;;;;;;;5.21;86.64;96697.03;5088088;28;20499;-73
2021/11/16 10:11:12;;;;;;;28.80;11.43;;;;;;;5.22;86.56;96714.88;5086743;28;20056;-73
2021/11/16 10:13:38;;;;;;;23.15;10.65;;;;;;;5.25;86.85;96703.50;5088323;28;20047;-73
2021/11/16 10:16:07;;;;;;;20.50;10.60;;;;;;;5.24;86.49;96704.59;5086999;28;20047;-73
2021/11/16 10:18:37;;;;;;;30.20;10.68;;;;;;;5.23;86.45;96701.09;5088124;28;20130;-73
2021/11/16 10:21:04;;;;;;;27.00;10.48;;;;;;;5.21;86.57;96702.44;5086707;28;20134;-73
2021/11/16 10:23:35;;;;;;;24.23;10.90;;;;;;;5.22;86.68;96695.97;5088040;28;20044;-73
2021/11/16 10:26:03;;;;;;;21.20;10.38;;;;;;;5.29;87.29;96696.47;5087326;28;20048;-70
2021/11/16 10:28:32;;;;;;;21.75;9.40;;;;;;;5.29;86.90;96698.38;5087439;28;20051;-73
2021/11/16 10:30:59;;;;;;;22.33;9.70;;;;;;;5.27;86.26;96693.22;5087770;28;20059;-73
2021/11/16 10:33:27;;;;;;;20.80;9.52;;;;;;;5.32;86.82;96692.41;5086711;28;20047;-73
2021/11/16 10:35:56;;;;;;;22.45;8.77;;;;;;;5.32;86.56;96687.81;5087996;28;20051;-73
2021/11/16 10:38:26;;;;;;;21.95;10.02;;;;;;;5.32;85.77;96695.91;5086485;28;20052;-73
2021/11/16 10:40:55;;;;;;;23.90;9.10;;;;;;;5.32;85.70;96698.59;5087631;28;20047;-73
2021/11/16 10:43:22;;;;;;;20.45;9.23;;;;;;;5.34;85.54;96696.44;5085983;28;20068;-73
2021/11/16 10:45:51;;;;;;;18.85;9.07;;;;;;;5.37;85.16;96697.78;5087464;28;20048;-73
2021/11/16 10:48:22;;;;;;;21.90;9.35;;;;;;;5.39;85.36;96691.03;5086838;28;20514;-73
2021/11/16 10:50:51;;;;;;;19.45;8.95;;;;;;;5.43;85.29;96685.91;5086984;28;20051;-73
2021/11/16 10:53:20;;;;;;;17.67;8.77;;;;;;;5.45;84.63;96684.53;5086992;28;20044;-74
2021/11/16 10:55:48;;;;;;;18.33;8.52;;;;;;;5.50;84.73;96678.28;5086759;28;20100;-73
2021/11/16 10:58:18;;;;;;;17.88;8.65;;;;;;;5.58;83.54;96679.59;5088569;28;20048;-73
2021/11/16 11:00:50;;;;;;;17.70;8.70;;;;;;;5.65;82.93;96690.91;5090723;28;20063;-73
2021/11/16 11:03:21;;;;;;;19.80;9.00;;;;;;;5.69;83.54;96687.38;5090988;28;20505;-73
2021/11/16 11:05:48;;;;;;;20.05;8.70;;;;;;;5.71;84.50;96674.41;5091267;28;20040;-73
2021/11/16 11:08:34;;;;;;;16.95;8.48;;;;;;;5.74;83.06;96681.13;5091008;28;20053;-73
2021/11/16 11:11:04;;;;;;;19.67;8.40;;;;;;;5.80;82.94;96680.03;5091204;28;20587;-73
2021/11/16 11:13:33;;;;;;;16.92;8.50;;;;;;;5.84;82.79;96680.25;5090174;28;20384;-73
2021/11/16 11:15:59;;;;;;;19.90;8.50;;;;;;;5.85;82.82;96669.19;5091975;28;20040;-73
2021/11/16 11:18:34;;;;;;;17.23;8.05;;;;;;;5.78;82.72;96670.56;5090250;28;20048;-73
2021/11/16 11:21:04;;;;;;;17.90;8.10;;;;;;;5.73;83.41;96668.72;5091337;28;20059;-73
2021/11/16 11:23:33;;;;;;;16.98;7.78;;;;;;;5.67;82.94;96669.81;5090375;28;20500;-73
2021/11/16 11:26:29;;;;;;;16.40;8.38;;;;;;;5.57;83.62;96669.88;5091221;28;20140;-73
2021/11/16 11:29:14;;;;;;;17.55;8.43;;;;;;;5.56;83.74;96668.28;5091174;28;20044;-73
2021/11/16 11:31:42;;;;;;;16.42;7.32;;;;;;;5.49;82.79;96669.38;5089654;28;20410;-73
2021/11/16 11:34:09;;;;;;;15.68;7.88;;;;;;;5.49;83.84;96663.97;5090806;28;20047;-74
2021/11/16 11:36:35;;;;;;;16.48;7.63;;;;;;;5.55;83.70;96661.25;5090406;28;20082;-73
2021/11/16 11:39:14;;;;;;;14.18;7.10;;;;;;;5.60;83.50;96659.34;5090504;28;20052;-72
2021/11/16 11:41:47;;;;;;;15.30;7.00;;;;;;;5.64;82.41;96662.28;5090507;28;20048;-73